sensor_id;sensor_type;location;lat;lon;timestamp;temperature;humidity
30308;DHT22;17114;52.314;8.910;2022-10-31T00:00:51;13.30;99.90
30308;DHT22;17114;52.314;8.910;2022-10-31T00:03:18;13.30;99.90
30308;DHT22;17114;52.314;8.910;2022-10-31T00:05:46;13.20;99.90
30308;DHT22;17114;52.314;8.910;2022-10-31T00:08:13;13.20;99.90
30308;DHT22;17114;52.314;8.910;2022-10-31T00:10:40;13.20;99.90
30308;DHT22;17114;52.314;8.910;2022-10-31T00:13:08;13.20;99.90
30308;DHT22;17114;52.314;8.910;2022-10-31T00:15:39;13.20;99.90
30308;DHT22;17114;52.314;8.910;2022-10-31T00:18:06;13.20;99.90
30308;DHT22;17114;52.314;8.910;2022-10-31T00:20:34;13.20;99.90
30308;DHT22;17114;52.314;8.910;2022-10-31T00:23:01;13.20;99.90
30308;DHT22;17114;52.314;8.910;2022-10-31T00:25:28;13.20;99.90
30308;DHT22;17114;52.314;8.910;2022-10-31T00:27:55;13.20;99.90
30308;DHT22;17114;52.314;8.910;2022-10-31T00:30:22;13.20;99.90
30308;DHT22;17114;52.314;8.910;2022-10-31T00:32:49;13.20;99.90
30308;DHT22;17114;52.314;8.910;2022-10-31T00:35:16;13.20;99.90
30308;DHT22;17114;52.314;8.910;2022-10-31T00:37:43;13.20;99.90
30308;DHT22;17114;52.314;8.910;2022-10-31T00:40:10;13.20;99.90
30308;DHT22;17114;52.314;8.910;2022-10-31T00:42:38;13.20;99.90
30308;DHT22;17114;52.314;8.910;2022-10-31T00:45:05;13.20;99.90
30308;DHT22;17114;52.314;8.910;2022-10-31T00:47:32;13.20;99.90
30308;DHT22;17114;52.314;8.910;2022-10-31T00:49:59;13.20;99.90
30308;DHT22;17114;52.314;8.910;2022-10-31T00:52:25;13.10;99.90
30308;DHT22;17114;52.314;8.910;2022-10-31T00:54:52;13.20;99.90
30308;DHT22;17114;52.314;8.910;2022-10-31T00:57:19;13.10;99.90
30308;DHT22;17114;52.314;8.910;2022-10-31T00:59:46;13.10;99.90
30308;DHT22;17114;52.314;8.910;2022-10-31T01:02:13;13.10;99.90
30308;DHT22;17114;52.314;8.910;2022-10-31T01:04:40;13.10;99.90
30308;DHT22;17114;52.314;8.910;2022-10-31T01:07:06;13.10;99.90
30308;DHT22;17114;52.314;8.910;2022-10-31T01:09:33;13.10;99.90
30308;DHT22;17114;52.314;8.910;2022-10-31T01:12:00;13.10;99.90
30308;DHT22;17114;52.314;8.910;2022-10-31T01:14:27;13.10;99.90
30308;DHT22;17114;52.314;8.910;2022-10-31T01:16:55;13.10;99.90
30308;DHT22;17114;52.314;8.910;2022-10-31T01:19:21;13.10;99.90
30308;DHT22;17114;52.314;8.910;2022-10-31T01:21:48;13.10;99.90
30308;DHT22;17114;52.314;8.910;2022-10-31T01:24:15;13.10;99.90
30308;DHT22;17114;52.314;8.910;2022-10-31T01:26:42;13.00;99.90
30308;DHT22;17114;52.314;8.910;2022-10-31T01:29:09;12.90;99.90
30308;DHT22;17114;52.314;8.910;2022-10-31T01:31:37;12.90;99.90
30308;DHT22;17114;52.314;8.910;2022-10-31T01:34:05;12.80;99.90
30308;DHT22;17114;52.314;8.910;2022-10-31T01:36:36;12.80;99.90
30308;DHT22;17114;52.314;8.910;2022-10-31T01:39:10;12.70;99.90
30308;DHT22;17114;52.314;8.910;2022-10-31T01:41:38;12.70;99.90
30308;DHT22;17114;52.314;8.910;2022-10-31T01:49:13;12.60;99.90
30308;DHT22;17114;52.314;8.910;2022-10-31T01:51:42;12.50;99.90
30308;DHT22;17114;52.314;8.910;2022-10-31T01:54:12;12.50;99.90
30308;DHT22;17114;52.314;8.910;2022-10-31T01:56:42;12.50;99.90
30308;DHT22;17114;52.314;8.910;2022-10-31T01:59:11;12.60;99.90
30308;DHT22;17114;52.314;8.910;2022-10-31T02:01:41;12.60;99.90
30308;DHT22;17114;52.314;8.910;2022-10-31T02:04:09;12.60;99.90
30308;DHT22;17114;52.314;8.910;2022-10-31T02:06:37;12.60;99.90
30308;DHT22;17114;52.314;8.910;2022-10-31T02:09:05;12.60;99.90
30308;DHT22;17114;52.314;8.910;2022-10-31T02:11:32;12.50;99.90
30308;DHT22;17114;52.314;8.910;2022-10-31T02:14:01;12.40;99.90
30308;DHT22;17114;52.314;8.910;2022-10-31T02:16:28;12.40;99.90
30308;DHT22;17114;52.314;8.910;2022-10-31T02:18:55;12.40;99.90
30308;DHT22;17114;52.314;8.910;2022-10-31T02:21:29;12.40;99.90
30308;DHT22;17114;52.314;8.910;2022-10-31T02:26:57;12.30;99.90
30308;DHT22;17114;52.314;8.910;2022-10-31T02:34:36;12.00;99.90
30308;DHT22;17114;52.314;8.910;2022-10-31T02:37:14;12.00;99.90
30308;DHT22;17114;52.314;8.910;2022-10-31T02:42:16;11.80;99.90
30308;DHT22;17114;52.314;8.910;2022-10-31T02:47:27;11.60;99.90
30308;DHT22;17114;52.314;8.910;2022-10-31T02:49:56;11.60;99.90
30308;DHT22;17114;52.314;8.910;2022-10-31T02:52:24;11.50;99.90
30308;DHT22;17114;52.314;8.910;2022-10-31T02:54:51;11.50;99.90
30308;DHT22;17114;52.314;8.910;2022-10-31T02:57:25;11.40;99.90
30308;DHT22;17114;52.314;8.910;2022-10-31T02:59:55;11.40;99.90
30308;DHT22;17114;52.314;8.910;2022-10-31T03:09:52;11.30;99.90
30308;DHT22;17114;52.314;8.910;2022-10-31T03:12:37;11.20;99.90
30308;DHT22;17114;52.314;8.910;2022-10-31T03:15:19;11.20;99.90
30308;DHT22;17114;52.314;8.910;2022-10-31T03:20:54;11.20;99.90
30308;DHT22;17114;52.314;8.910;2022-10-31T03:23:22;11.10;99.90
30308;DHT22;17114;52.314;8.910;2022-10-31T03:25:50;11.10;99.90
30308;DHT22;17114;52.314;8.910;2022-10-31T03:28:18;11.10;99.90
30308;DHT22;17114;52.314;8.910;2022-10-31T03:30:48;11.10;99.90
30308;DHT22;17114;52.314;8.910;2022-10-31T03:33:17;11.10;99.90
30308;DHT22;17114;52.314;8.910;2022-10-31T03:35:48;11.10;99.90
30308;DHT22;17114;52.314;8.910;2022-10-31T03:38:16;11.20;99.90
30308;DHT22;17114;52.314;8.910;2022-10-31T03:40:44;11.10;99.90
30308;DHT22;17114;52.314;8.910;2022-10-31T03:43:19;11.20;99.90
30308;DHT22;17114;52.314;8.910;2022-10-31T03:45:48;11.10;99.90
30308;DHT22;17114;52.314;8.910;2022-10-31T03:48:16;11.10;99.90
30308;DHT22;17114;52.314;8.910;2022-10-31T03:53:19;11.10;99.90
30308;DHT22;17114;52.314;8.910;2022-10-31T03:55:53;11.00;99.90
30308;DHT22;17114;52.314;8.910;2022-10-31T03:58:23;11.00;99.90
30308;DHT22;17114;52.314;8.910;2022-10-31T04:00:51;11.00;99.90
30308;DHT22;17114;52.314;8.910;2022-10-31T04:03:21;11.00;99.90
30308;DHT22;17114;52.314;8.910;2022-10-31T04:05:49;10.90;99.90
30308;DHT22;17114;52.314;8.910;2022-10-31T04:08:17;10.90;99.90
30308;DHT22;17114;52.314;8.910;2022-10-31T04:10:47;10.90;99.90
30308;DHT22;17114;52.314;8.910;2022-10-31T04:13:16;10.90;99.90
30308;DHT22;17114;52.314;8.910;2022-10-31T04:15:44;10.90;99.90
30308;DHT22;17114;52.314;8.910;2022-10-31T04:18:12;10.80;99.90
30308;DHT22;17114;52.314;8.910;2022-10-31T04:20:40;10.80;99.90
30308;DHT22;17114;52.314;8.910;2022-10-31T04:23:25;10.70;99.90
30308;DHT22;17114;52.314;8.910;2022-10-31T04:25:52;10.70;99.90
30308;DHT22;17114;52.314;8.910;2022-10-31T04:28:20;10.60;99.90
30308;DHT22;17114;52.314;8.910;2022-10-31T04:30:47;10.60;99.90
30308;DHT22;17114;52.314;8.910;2022-10-31T04:33:14;10.60;99.90
30308;DHT22;17114;52.314;8.910;2022-10-31T04:35:41;10.50;99.90
30308;DHT22;17114;52.314;8.910;2022-10-31T04:38:08;10.50;99.90
30308;DHT22;17114;52.314;8.910;2022-10-31T04:40:35;10.50;99.90
30308;DHT22;17114;52.314;8.910;2022-10-31T04:43:01;10.50;99.90
30308;DHT22;17114;52.314;8.910;2022-10-31T04:45:29;10.40;99.90
30308;DHT22;17114;52.314;8.910;2022-10-31T04:47:56;10.40;99.90
30308;DHT22;17114;52.314;8.910;2022-10-31T04:50:23;10.40;99.90
30308;DHT22;17114;52.314;8.910;2022-10-31T04:52:50;10.30;99.90
30308;DHT22;17114;52.314;8.910;2022-10-31T04:55:17;10.30;99.90
30308;DHT22;17114;52.314;8.910;2022-10-31T04:57:45;10.30;99.90
30308;DHT22;17114;52.314;8.910;2022-10-31T05:00:12;10.30;99.90
30308;DHT22;17114;52.314;8.910;2022-10-31T05:02:46;10.20;99.90
30308;DHT22;17114;52.314;8.910;2022-10-31T05:05:13;10.20;99.90
30308;DHT22;17114;52.314;8.910;2022-10-31T05:07:41;10.10;99.90
30308;DHT22;17114;52.314;8.910;2022-10-31T05:10:09;10.10;99.90
30308;DHT22;17114;52.314;8.910;2022-10-31T05:12:36;10.10;99.90
30308;DHT22;17114;52.314;8.910;2022-10-31T05:15:04;10.10;99.90
30308;DHT22;17114;52.314;8.910;2022-10-31T05:17:31;10.10;99.90
30308;DHT22;17114;52.314;8.910;2022-10-31T05:19:58;10.10;99.90
30308;DHT22;17114;52.314;8.910;2022-10-31T05:22:25;10.10;99.90
30308;DHT22;17114;52.314;8.910;2022-10-31T05:24:52;10.10;99.90
30308;DHT22;17114;52.314;8.910;2022-10-31T05:27:23;10.00;99.90
30308;DHT22;17114;52.314;8.910;2022-10-31T05:29:50;10.00;99.90
30308;DHT22;17114;52.314;8.910;2022-10-31T05:32:16;9.90;99.90
30308;DHT22;17114;52.314;8.910;2022-10-31T05:34:43;9.90;99.90
30308;DHT22;17114;52.314;8.910;2022-10-31T05:37:10;9.90;99.90
30308;DHT22;17114;52.314;8.910;2022-10-31T05:39:37;9.80;99.90
30308;DHT22;17114;52.314;8.910;2022-10-31T05:42:04;9.80;99.90
30308;DHT22;17114;52.314;8.910;2022-10-31T05:44:31;9.80;99.90
30308;DHT22;17114;52.314;8.910;2022-10-31T05:46:57;9.70;99.90
30308;DHT22;17114;52.314;8.910;2022-10-31T05:49:24;9.70;99.90
30308;DHT22;17114;52.314;8.910;2022-10-31T05:51:51;9.70;99.90
30308;DHT22;17114;52.314;8.910;2022-10-31T05:54:18;9.70;99.90
30308;DHT22;17114;52.314;8.910;2022-10-31T05:56:45;9.60;99.90
30308;DHT22;17114;52.314;8.910;2022-10-31T05:59:12;9.60;99.90
30308;DHT22;17114;52.314;8.910;2022-10-31T06:01:38;9.60;99.90
30308;DHT22;17114;52.314;8.910;2022-10-31T06:04:05;9.50;99.90
30308;DHT22;17114;52.314;8.910;2022-10-31T06:06:32;9.50;99.90
30308;DHT22;17114;52.314;8.910;2022-10-31T06:08:59;9.50;99.90
30308;DHT22;17114;52.314;8.910;2022-10-31T06:11:26;9.50;99.90
30308;DHT22;17114;52.314;8.910;2022-10-31T06:13:53;9.40;99.90
30308;DHT22;17114;52.314;8.910;2022-10-31T06:16:20;9.40;99.90
30308;DHT22;17114;52.314;8.910;2022-10-31T06:18:47;9.40;99.90
30308;DHT22;17114;52.314;8.910;2022-10-31T06:21:13;9.40;99.90
30308;DHT22;17114;52.314;8.910;2022-10-31T06:23:44;9.40;99.90
30308;DHT22;17114;52.314;8.910;2022-10-31T06:26:11;9.40;99.90
30308;DHT22;17114;52.314;8.910;2022-10-31T06:28:38;9.40;99.90
30308;DHT22;17114;52.314;8.910;2022-10-31T06:31:05;9.40;99.90
30308;DHT22;17114;52.314;8.910;2022-10-31T06:33:32;9.50;99.90
30308;DHT22;17114;52.314;8.910;2022-10-31T06:35:59;9.60;99.90
30308;DHT22;17114;52.314;8.910;2022-10-31T06:38:26;9.60;99.90
30308;DHT22;17114;52.314;8.910;2022-10-31T06:40:54;9.70;99.90
30308;DHT22;17114;52.314;8.910;2022-10-31T06:43:21;9.90;99.90
30308;DHT22;17114;52.314;8.910;2022-10-31T06:45:54;10.00;99.90
30308;DHT22;17114;52.314;8.910;2022-10-31T06:48:29;10.10;99.90
30308;DHT22;17114;52.314;8.910;2022-10-31T06:50:57;10.30;99.90
30308;DHT22;17114;52.314;8.910;2022-10-31T06:53:25;10.40;99.90
30308;DHT22;17114;52.314;8.910;2022-10-31T06:55:52;10.50;99.90
30308;DHT22;17114;52.314;8.910;2022-10-31T06:58:19;10.50;99.90
30308;DHT22;17114;52.314;8.910;2022-10-31T07:00:46;10.70;99.90
30308;DHT22;17114;52.314;8.910;2022-10-31T07:03:13;10.80;99.90
30308;DHT22;17114;52.314;8.910;2022-10-31T07:05:42;10.90;99.90
30308;DHT22;17114;52.314;8.910;2022-10-31T07:08:14;11.00;99.90
30308;DHT22;17114;52.314;8.910;2022-10-31T07:10:50;11.10;99.90
30308;DHT22;17114;52.314;8.910;2022-10-31T07:13:19;11.20;99.90
30308;DHT22;17114;52.314;8.910;2022-10-31T07:15:52;11.30;99.90
30308;DHT22;17114;52.314;8.910;2022-10-31T07:18:22;11.60;99.90
30308;DHT22;17114;52.314;8.910;2022-10-31T07:20:51;11.80;99.90
30308;DHT22;17114;52.314;8.910;2022-10-31T07:23:22;12.10;99.90
30308;DHT22;17114;52.314;8.910;2022-10-31T07:25:57;12.30;99.90
30308;DHT22;17114;52.314;8.910;2022-10-31T07:28:25;12.50;99.90
30308;DHT22;17114;52.314;8.910;2022-10-31T07:30:56;12.60;99.90
30308;DHT22;17114;52.314;8.910;2022-10-31T07:33:25;12.70;99.90
30308;DHT22;17114;52.314;8.910;2022-10-31T07:35:55;12.80;99.90
30308;DHT22;17114;52.314;8.910;2022-10-31T07:38:22;13.00;99.90
30308;DHT22;17114;52.314;8.910;2022-10-31T07:40:56;13.10;99.90
30308;DHT22;17114;52.314;8.910;2022-10-31T07:43:23;13.40;99.90
30308;DHT22;17114;52.314;8.910;2022-10-31T07:45:53;13.60;99.90
30308;DHT22;17114;52.314;8.910;2022-10-31T07:48:20;13.90;99.90
30308;DHT22;17114;52.314;8.910;2022-10-31T07:50:47;14.00;99.90
30308;DHT22;17114;52.314;8.910;2022-10-31T07:53:15;14.00;99.90
30308;DHT22;17114;52.314;8.910;2022-10-31T07:55:42;14.10;99.90
30308;DHT22;17114;52.314;8.910;2022-10-31T07:58:13;14.30;99.90
30308;DHT22;17114;52.314;8.910;2022-10-31T08:00:41;14.50;99.90
30308;DHT22;17114;52.314;8.910;2022-10-31T08:03:10;14.70;99.90
30308;DHT22;17114;52.314;8.910;2022-10-31T08:05:46;15.00;99.90
30308;DHT22;17114;52.314;8.910;2022-10-31T08:08:14;15.30;99.90
30308;DHT22;17114;52.314;8.910;2022-10-31T08:10:41;15.50;99.90
30308;DHT22;17114;52.314;8.910;2022-10-31T08:13:10;15.70;99.90
30308;DHT22;17114;52.314;8.910;2022-10-31T08:15:37;15.90;99.90
30308;DHT22;17114;52.314;8.910;2022-10-31T08:18:06;15.90;99.90
30308;DHT22;17114;52.314;8.910;2022-10-31T08:20:33;15.80;99.90
30308;DHT22;17114;52.314;8.910;2022-10-31T08:23:01;15.80;99.90
30308;DHT22;17114;52.314;8.910;2022-10-31T08:25:29;15.80;99.90
30308;DHT22;17114;52.314;8.910;2022-10-31T08:28:03;15.80;99.90
30308;DHT22;17114;52.314;8.910;2022-10-31T08:30:31;15.80;99.90
30308;DHT22;17114;52.314;8.910;2022-10-31T08:33:02;15.80;99.90
30308;DHT22;17114;52.314;8.910;2022-10-31T08:35:29;15.90;99.90
30308;DHT22;17114;52.314;8.910;2022-10-31T08:37:56;15.90;99.90
30308;DHT22;17114;52.314;8.910;2022-10-31T08:40:24;16.10;99.90
30308;DHT22;17114;52.314;8.910;2022-10-31T08:42:58;16.10;99.90
30308;DHT22;17114;52.314;8.910;2022-10-31T08:45:25;16.20;99.90
30308;DHT22;17114;52.314;8.910;2022-10-31T08:47:56;16.20;99.90
30308;DHT22;17114;52.314;8.910;2022-10-31T08:50:23;16.10;99.90
30308;DHT22;17114;52.314;8.910;2022-10-31T08:52:50;16.10;99.90
30308;DHT22;17114;52.314;8.910;2022-10-31T08:55:32;16.00;99.90
30308;DHT22;17114;52.314;8.910;2022-10-31T08:57:59;16.10;99.90
30308;DHT22;17114;52.314;8.910;2022-10-31T09:00:27;16.20;99.90
30308;DHT22;17114;52.314;8.910;2022-10-31T09:02:54;16.30;99.90
30308;DHT22;17114;52.314;8.910;2022-10-31T09:05:21;16.30;99.90
30308;DHT22;17114;52.314;8.910;2022-10-31T09:07:48;16.30;99.90
30308;DHT22;17114;52.314;8.910;2022-10-31T09:10:15;16.30;99.90
30308;DHT22;17114;52.314;8.910;2022-10-31T09:12:42;16.30;99.90
30308;DHT22;17114;52.314;8.910;2022-10-31T09:15:09;16.40;99.90
30308;DHT22;17114;52.314;8.910;2022-10-31T09:17:36;16.60;99.90
30308;DHT22;17114;52.314;8.910;2022-10-31T09:20:03;16.80;99.90
30308;DHT22;17114;52.314;8.910;2022-10-31T09:22:30;17.10;99.90
30308;DHT22;17114;52.314;8.910;2022-10-31T09:24:57;17.40;99.90
30308;DHT22;17114;52.314;8.910;2022-10-31T09:27:26;17.70;99.90
30308;DHT22;17114;52.314;8.910;2022-10-31T09:29:53;18.00;99.90
30308;DHT22;17114;52.314;8.910;2022-10-31T09:32:20;18.20;99.90
30308;DHT22;17114;52.314;8.910;2022-10-31T09:34:47;18.20;99.90
30308;DHT22;17114;52.314;8.910;2022-10-31T09:37:14;18.10;99.90
30308;DHT22;17114;52.314;8.910;2022-10-31T09:39:41;18.20;99.90
30308;DHT22;17114;52.314;8.910;2022-10-31T09:42:18;18.40;99.90
30308;DHT22;17114;52.314;8.910;2022-10-31T09:44:52;18.60;99.90
30308;DHT22;17114;52.314;8.910;2022-10-31T09:50:25;18.80;99.90
30308;DHT22;17114;52.314;8.910;2022-10-31T09:53:03;19.10;99.90
30308;DHT22;17114;52.314;8.910;2022-10-31T09:55:39;19.10;99.90
30308;DHT22;17114;52.314;8.910;2022-10-31T09:58:18;19.10;99.90
30308;DHT22;17114;52.314;8.910;2022-10-31T10:01:38;19.10;99.90
30308;DHT22;17114;52.314;8.910;2022-10-31T10:05:00;19.00;99.90
30308;DHT22;17114;52.314;8.910;2022-10-31T10:07:19;18.80;99.90
30308;DHT22;17114;52.314;8.910;2022-10-31T10:09:48;18.60;99.90
30308;DHT22;17114;52.314;8.910;2022-10-31T10:20:31;18.20;99.90
30308;DHT22;17114;52.314;8.910;2022-10-31T10:25:37;18.00;99.90
30308;DHT22;17114;52.314;8.910;2022-10-31T10:31:10;18.20;99.90
30308;DHT22;17114;52.314;8.910;2022-10-31T10:36:26;18.50;99.90
30308;DHT22;17114;52.314;8.910;2022-10-31T10:39:00;18.70;99.90
30308;DHT22;17114;52.314;8.910;2022-10-31T10:41:30;18.80;99.90
30308;DHT22;17114;52.314;8.910;2022-10-31T10:44:00;18.70;99.90
30308;DHT22;17114;52.314;8.910;2022-10-31T10:51:46;18.40;99.90
30308;DHT22;17114;52.314;8.910;2022-10-31T10:59:38;18.30;99.90
30308;DHT22;17114;52.314;8.910;2022-10-31T11:02:16;18.40;99.90
30308;DHT22;17114;52.314;8.910;2022-10-31T11:04:43;18.40;99.90
30308;DHT22;17114;52.314;8.910;2022-10-31T11:07:11;18.50;99.90
30308;DHT22;17114;52.314;8.910;2022-10-31T11:09:38;18.40;99.90
30308;DHT22;17114;52.314;8.910;2022-10-31T11:15:08;18.30;99.90
30308;DHT22;17114;52.314;8.910;2022-10-31T11:17:46;18.40;99.90
30308;DHT22;17114;52.314;8.910;2022-10-31T11:22:45;18.70;99.90
30308;DHT22;17114;52.314;8.910;2022-10-31T11:27:46;18.70;99.90
30308;DHT22;17114;52.314;8.910;2022-10-31T11:30:16;18.60;99.90
30308;DHT22;17114;52.314;8.910;2022-10-31T11:32:47;18.70;99.90
30308;DHT22;17114;52.314;8.910;2022-10-31T11:38:44;18.70;99.90
30308;DHT22;17114;52.314;8.910;2022-10-31T11:44:34;18.60;99.90
30308;DHT22;17114;52.314;8.910;2022-10-31T11:47:02;18.80;99.90
30308;DHT22;17114;52.314;8.910;2022-10-31T11:51:58;19.20;99.90
30308;DHT22;17114;52.314;8.910;2022-10-31T11:54:30;19.20;99.90
30308;DHT22;17114;52.314;8.910;2022-10-31T11:56:58;19.10;99.90
30308;DHT22;17114;52.314;8.910;2022-10-31T11:59:29;19.10;99.90
30308;DHT22;17114;52.314;8.910;2022-10-31T12:01:57;19.10;99.90
30308;DHT22;17114;52.314;8.910;2022-10-31T12:04:33;19.00;99.90
30308;DHT22;17114;52.314;8.910;2022-10-31T12:07:01;18.90;99.90
30308;DHT22;17114;52.314;8.910;2022-10-31T12:09:29;18.90;99.90
30308;DHT22;17114;52.314;8.910;2022-10-31T12:17:20;18.80;99.90
30308;DHT22;17114;52.314;8.910;2022-10-31T12:19:57;18.80;99.90
30308;DHT22;17114;52.314;8.910;2022-10-31T12:30:25;18.70;99.90
30308;DHT22;17114;52.314;8.910;2022-10-31T12:33:08;18.60;99.90
30308;DHT22;17114;52.314;8.910;2022-10-31T12:38:13;18.40;99.90
30308;DHT22;17114;52.314;8.910;2022-10-31T12:45:57;18.30;99.90
30308;DHT22;17114;52.314;8.910;2022-10-31T12:53:26;18.30;99.90
30308;DHT22;17114;52.314;8.910;2022-10-31T12:55:58;18.30;99.90
30308;DHT22;17114;52.314;8.910;2022-10-31T12:58:31;18.40;99.90
30308;DHT22;17114;52.314;8.910;2022-10-31T13:04:15;18.30;99.90
30308;DHT22;17114;52.314;8.910;2022-10-31T13:06:38;18.40;99.90
30308;DHT22;17114;52.314;8.910;2022-10-31T13:09:12;18.40;99.90
30308;DHT22;17114;52.314;8.910;2022-10-31T13:11:45;18.40;99.90
30308;DHT22;17114;52.314;8.910;2022-10-31T13:14:23;18.40;99.90
30308;DHT22;17114;52.314;8.910;2022-10-31T13:16:52;18.40;99.90
30308;DHT22;17114;52.314;8.910;2022-10-31T13:19:22;18.40;99.90
30308;DHT22;17114;52.314;8.910;2022-10-31T13:21:55;18.30;99.90
30308;DHT22;17114;52.314;8.910;2022-10-31T13:24:26;18.30;99.90
30308;DHT22;17114;52.314;8.910;2022-10-31T13:26:56;18.30;99.90
30308;DHT22;17114;52.314;8.910;2022-10-31T13:29:29;18.30;99.90
30308;DHT22;17114;52.314;8.910;2022-10-31T13:32:03;18.20;99.90
30308;DHT22;17114;52.314;8.910;2022-10-31T13:37:23;18.10;99.90
30308;DHT22;17114;52.314;8.910;2022-10-31T13:39:58;18.10;99.90
30308;DHT22;17114;52.314;8.910;2022-10-31T13:42:41;18.00;99.90
30308;DHT22;17114;52.314;8.910;2022-10-31T13:45:15;18.00;99.90
30308;DHT22;17114;52.314;8.910;2022-10-31T13:47:43;18.00;99.90
30308;DHT22;17114;52.314;8.910;2022-10-31T13:50:21;18.00;99.90
30308;DHT22;17114;52.314;8.910;2022-10-31T13:52:49;18.00;99.90
30308;DHT22;17114;52.314;8.910;2022-10-31T13:55:37;17.90;99.90
30308;DHT22;17114;52.314;8.910;2022-10-31T13:58:19;17.90;99.90
30308;DHT22;17114;52.314;8.910;2022-10-31T14:00:46;17.80;99.90
30308;DHT22;17114;52.314;8.910;2022-10-31T14:03:24;17.80;99.90
30308;DHT22;17114;52.314;8.910;2022-10-31T14:06:11;17.70;99.90
30308;DHT22;17114;52.314;8.910;2022-10-31T14:08:47;17.70;99.90
30308;DHT22;17114;52.314;8.910;2022-10-31T14:11:24;17.60;99.90
30308;DHT22;17114;52.314;8.910;2022-10-31T14:14:01;17.60;99.90
30308;DHT22;17114;52.314;8.910;2022-10-31T14:16:29;17.60;99.90
30308;DHT22;17114;52.314;8.910;2022-10-31T14:19:01;17.50;99.90
30308;DHT22;17114;52.314;8.910;2022-10-31T14:21:29;17.50;99.90
30308;DHT22;17114;52.314;8.910;2022-10-31T14:23:57;17.50;99.90
30308;DHT22;17114;52.314;8.910;2022-10-31T14:26:31;17.40;99.90
30308;DHT22;17114;52.314;8.910;2022-10-31T14:29:02;17.40;99.90
30308;DHT22;17114;52.314;8.910;2022-10-31T14:31:52;17.30;99.90
30308;DHT22;17114;52.314;8.910;2022-10-31T14:34:37;17.30;99.90
30308;DHT22;17114;52.314;8.910;2022-10-31T14:52:54;17.00;99.90
30308;DHT22;17114;52.314;8.910;2022-10-31T14:55:21;16.90;99.90
30308;DHT22;17114;52.314;8.910;2022-10-31T14:57:50;16.90;99.90
30308;DHT22;17114;52.314;8.910;2022-10-31T15:00:19;16.80;99.90
30308;DHT22;17114;52.314;8.910;2022-10-31T15:05:17;16.70;99.90
30308;DHT22;17114;52.314;8.910;2022-10-31T15:07:51;16.60;99.90
30308;DHT22;17114;52.314;8.910;2022-10-31T15:12:52;16.50;99.90
30308;DHT22;17114;52.314;8.910;2022-10-31T15:15:25;16.50;99.90
30308;DHT22;17114;52.314;8.910;2022-10-31T15:17:58;16.50;99.90
30308;DHT22;17114;52.314;8.910;2022-10-31T15:20:26;16.50;99.90
30308;DHT22;17114;52.314;8.910;2022-10-31T15:22:57;16.40;99.90
30308;DHT22;17114;52.314;8.910;2022-10-31T15:25:25;16.40;99.90
30308;DHT22;17114;52.314;8.910;2022-10-31T15:27:53;16.30;99.90
30308;DHT22;17114;52.314;8.910;2022-10-31T15:30:24;16.30;99.90
30308;DHT22;17114;52.314;8.910;2022-10-31T15:32:52;16.20;99.90
30308;DHT22;17114;52.314;8.910;2022-10-31T15:35:30;16.20;99.90
30308;DHT22;17114;52.314;8.910;2022-10-31T15:37:57;16.20;99.90
30308;DHT22;17114;52.314;8.910;2022-10-31T15:40:26;16.20;99.90
30308;DHT22;17114;52.314;8.910;2022-10-31T15:42:57;16.20;99.90
30308;DHT22;17114;52.314;8.910;2022-10-31T15:45:26;16.10;99.90
30308;DHT22;17114;52.314;8.910;2022-10-31T15:47:55;16.10;99.90
30308;DHT22;17114;52.314;8.910;2022-10-31T15:50:27;16.00;99.90
30308;DHT22;17114;52.314;8.910;2022-10-31T15:52:55;16.00;99.90
30308;DHT22;17114;52.314;8.910;2022-10-31T15:55:23;16.00;99.90
30308;DHT22;17114;52.314;8.910;2022-10-31T15:58:03;16.00;99.90
30308;DHT22;17114;52.314;8.910;2022-10-31T16:00:37;16.00;99.90
30308;DHT22;17114;52.314;8.910;2022-10-31T16:05:36;16.00;99.90
30308;DHT22;17114;52.314;8.910;2022-10-31T16:08:04;16.00;99.90
30308;DHT22;17114;52.314;8.910;2022-10-31T16:10:32;16.00;99.90
30308;DHT22;17114;52.314;8.910;2022-10-31T16:12:59;15.90;99.90
30308;DHT22;17114;52.314;8.910;2022-10-31T16:15:27;15.90;99.90
30308;DHT22;17114;52.314;8.910;2022-10-31T16:17:56;15.90;99.90
30308;DHT22;17114;52.314;8.910;2022-10-31T16:20:27;15.90;99.90
30308;DHT22;17114;52.314;8.910;2022-10-31T16:22:55;15.90;99.90
30308;DHT22;17114;52.314;8.910;2022-10-31T16:25:29;15.80;99.90
30308;DHT22;17114;52.314;8.910;2022-10-31T16:27:59;15.80;99.90
30308;DHT22;17114;52.314;8.910;2022-10-31T16:30:40;15.80;99.90
30308;DHT22;17114;52.314;8.910;2022-10-31T16:33:24;15.80;99.90
30308;DHT22;17114;52.314;8.910;2022-10-31T16:35:52;15.80;99.90
30308;DHT22;17114;52.314;8.910;2022-10-31T16:38:35;15.80;99.90
30308;DHT22;17114;52.314;8.910;2022-10-31T16:41:02;15.80;99.90
30308;DHT22;17114;52.314;8.910;2022-10-31T16:43:29;15.70;99.90
30308;DHT22;17114;52.314;8.910;2022-10-31T16:45:56;15.80;99.90
30308;DHT22;17114;52.314;8.910;2022-10-31T16:48:22;15.80;99.90
30308;DHT22;17114;52.314;8.910;2022-10-31T16:50:49;15.80;99.90
30308;DHT22;17114;52.314;8.910;2022-10-31T16:53:17;15.80;99.90
30308;DHT22;17114;52.314;8.910;2022-10-31T16:55:55;15.70;99.90
30308;DHT22;17114;52.314;8.910;2022-10-31T16:58:26;15.70;99.90
30308;DHT22;17114;52.314;8.910;2022-10-31T17:00:53;15.70;99.90
30308;DHT22;17114;52.314;8.910;2022-10-31T17:03:20;15.70;99.90
30308;DHT22;17114;52.314;8.910;2022-10-31T17:05:48;15.70;99.90
30308;DHT22;17114;52.314;8.910;2022-10-31T17:08:15;15.70;99.90
30308;DHT22;17114;52.314;8.910;2022-10-31T17:10:42;15.60;99.90
30308;DHT22;17114;52.314;8.910;2022-10-31T17:13:15;15.60;99.90
30308;DHT22;17114;52.314;8.910;2022-10-31T17:15:45;15.60;99.90
30308;DHT22;17114;52.314;8.910;2022-10-31T17:18:13;15.60;99.90
30308;DHT22;17114;52.314;8.910;2022-10-31T17:20:40;15.70;99.90
30308;DHT22;17114;52.314;8.910;2022-10-31T17:23:08;15.70;99.90
30308;DHT22;17114;52.314;8.910;2022-10-31T17:25:36;15.70;99.90
30308;DHT22;17114;52.314;8.910;2022-10-31T17:28:04;15.70;99.90
30308;DHT22;17114;52.314;8.910;2022-10-31T17:30:31;15.80;99.90
30308;DHT22;17114;52.314;8.910;2022-10-31T17:32:59;15.80;99.90
30308;DHT22;17114;52.314;8.910;2022-10-31T17:35:27;15.80;99.90
30308;DHT22;17114;52.314;8.910;2022-10-31T17:37:54;15.80;99.90
30308;DHT22;17114;52.314;8.910;2022-10-31T17:40:21;15.80;99.90
30308;DHT22;17114;52.314;8.910;2022-10-31T17:42:50;15.80;99.90
30308;DHT22;17114;52.314;8.910;2022-10-31T17:45:18;15.80;99.90
30308;DHT22;17114;52.314;8.910;2022-10-31T17:47:45;15.80;99.90
30308;DHT22;17114;52.314;8.910;2022-10-31T17:50:14;15.80;99.90
30308;DHT22;17114;52.314;8.910;2022-10-31T17:52:41;15.90;99.90
30308;DHT22;17114;52.314;8.910;2022-10-31T17:55:08;15.70;99.90
30308;DHT22;17114;52.314;8.910;2022-10-31T17:57:36;15.90;99.90
30308;DHT22;17114;52.314;8.910;2022-10-31T18:00:03;15.90;99.90
30308;DHT22;17114;52.314;8.910;2022-10-31T18:02:31;15.90;99.90